createdAt,value
2023-04-21T00:02:22.078Z,7.65
2023-04-21T00:05:12.710Z,7.65
2023-04-21T00:07:58.333Z,7.65
2023-04-21T00:10:44.265Z,7.63
2023-04-21T00:13:29.379Z,7.64
2023-04-21T00:16:14.793Z,7.63
2023-04-21T00:19:00.761Z,7.62
2023-04-21T00:21:46.456Z,7.59
2023-04-21T00:24:31.899Z,7.54
2023-04-21T00:27:17.021Z,7.52
2023-04-21T00:30:03.094Z,7.48
2023-04-21T00:32:48.398Z,7.44
2023-04-21T00:35:33.569Z,7.36
2023-04-21T00:38:19.397Z,7.28
2023-04-21T00:41:05.134Z,7.22
2023-04-21T00:44:06.630Z,7.22
2023-04-21T00:46:52.159Z,7.24
2023-04-21T00:49:37.506Z,7.27
2023-04-21T00:52:22.884Z,7.32
2023-04-21T00:55:08.482Z,7.38
2023-04-21T00:57:55.575Z,7.47
2023-04-21T01:00:45.629Z,7.47
2023-04-21T01:03:31.267Z,7.46
2023-04-21T01:06:17.418Z,7.46
2023-04-21T01:09:04.843Z,7.52
2023-04-21T01:12:03.604Z,7.54
2023-04-21T01:14:49.253Z,7.53
2023-04-21T01:17:38.597Z,7.51
2023-04-21T01:20:24.836Z,7.49
2023-04-21T01:23:10.310Z,7.45
2023-04-21T01:25:55.726Z,7.44
2023-04-21T01:28:41.278Z,7.40
2023-04-21T01:31:27.471Z,7.38
2023-04-21T01:34:13.094Z,7.32
2023-04-21T01:36:58.319Z,7.30
2023-04-21T01:39:45.083Z,7.28
2023-04-21T01:42:31.221Z,7.25
2023-04-21T01:45:17.031Z,7.25
2023-04-21T01:48:02.427Z,7.18
2023-04-21T01:50:47.608Z,7.14
2023-04-21T01:53:33.139Z,7.07
2023-04-21T01:56:20.595Z,7.08
2023-04-21T01:59:06.057Z,7.08
2023-04-21T02:01:51.316Z,7.07
2023-04-21T02:04:37.137Z,7.13
2023-04-21T02:07:22.579Z,7.13
2023-04-21T02:10:08.031Z,7.08
2023-04-21T02:12:53.644Z,7.07
2023-04-21T02:15:38.989Z,7.07
2023-04-21T02:18:26.055Z,7.02
2023-04-21T02:21:11.837Z,7.02
2023-04-21T02:23:57.145Z,7.04
2023-04-21T02:26:44.820Z,7.01
2023-04-21T02:29:30.090Z,6.93
2023-04-21T02:32:25.109Z,6.98
2023-04-21T02:35:11.609Z,7.00
2023-04-21T02:37:56.805Z,6.94
2023-04-21T02:40:42.777Z,6.90
2023-04-21T02:43:28.316Z,6.84
2023-04-21T02:46:14.600Z,6.77
2023-04-21T02:48:59.977Z,6.79
2023-04-21T02:51:45.129Z,6.76
2023-04-21T02:54:30.472Z,6.83
2023-04-21T02:57:15.465Z,6.81
2023-04-21T03:00:01.184Z,6.78
2023-04-21T03:02:46.785Z,6.78
2023-04-21T03:05:34.475Z,6.80
2023-04-21T03:08:19.680Z,6.90
2023-04-21T03:11:04.894Z,6.98
2023-04-21T03:13:50.612Z,7.03
2023-04-21T03:16:37.095Z,7.04
2023-04-21T03:19:24.186Z,7.07
2023-04-21T03:22:09.519Z,7.07
2023-04-21T03:24:54.875Z,7.07
2023-04-21T03:27:40.201Z,7.06
2023-04-21T03:30:28.348Z,7.06
2023-04-21T03:33:13.890Z,7.10
2023-04-21T03:35:58.909Z,7.10
2023-04-21T03:38:48.693Z,7.10
2023-04-21T03:41:35.035Z,7.13
2023-04-21T03:44:22.156Z,7.13
2023-04-21T03:47:07.385Z,7.20
2023-04-21T03:49:52.457Z,7.26
2023-04-21T03:52:37.735Z,7.35
2023-04-21T03:55:22.940Z,7.40
2023-04-21T03:58:08.193Z,7.45
2023-04-21T04:00:53.398Z,7.50
2023-04-21T04:03:38.803Z,7.51
2023-04-21T04:06:24.444Z,7.52
2023-04-21T04:09:09.797Z,7.54
2023-04-21T04:11:55.129Z,7.54
2023-04-21T04:14:40.466Z,7.52
2023-04-21T04:17:25.815Z,7.51
2023-04-21T04:20:11.342Z,7.50
2023-04-21T04:22:56.656Z,7.52
2023-04-21T04:25:42.829Z,7.52
2023-04-21T04:28:28.980Z,7.55
2023-04-21T04:31:15.183Z,7.56
2023-04-21T04:34:00.471Z,7.56
2023-04-21T04:36:46.161Z,7.59
2023-04-21T04:39:32.304Z,7.60
2023-04-21T04:42:17.662Z,7.62
2023-04-21T04:45:03.346Z,7.64
2023-04-21T04:47:49.946Z,7.65
2023-04-21T04:50:35.572Z,7.67
2023-04-21T04:53:20.893Z,7.66
2023-04-21T04:56:06.247Z,7.64
2023-04-21T04:58:51.340Z,7.64
2023-04-21T05:01:38.261Z,7.62
2023-04-21T05:04:24.260Z,7.54
2023-04-21T05:07:09.852Z,7.50
2023-04-21T05:09:55.238Z,7.42
2023-04-21T05:12:40.394Z,7.38
2023-04-21T05:15:25.697Z,7.33
2023-04-21T05:18:11.167Z,7.37
2023-04-21T05:20:56.571Z,7.34
2023-04-21T05:23:42.183Z,7.26
2023-04-21T05:26:28.007Z,7.22
2023-04-21T05:29:13.308Z,7.17
2023-04-21T05:31:58.554Z,7.10
2023-04-21T05:34:44.331Z,7.05
2023-04-21T05:37:29.645Z,7.05
2023-04-21T05:40:14.832Z,7.04
2023-04-21T05:43:00.066Z,7.03
2023-04-21T05:45:45.404Z,7.03
2023-04-21T05:48:30.724Z,7.07
2023-04-21T05:51:15.889Z,7.11
2023-04-21T05:54:01.109Z,7.14
2023-04-21T05:56:47.497Z,7.13
2023-04-21T05:59:32.635Z,7.12
2023-04-21T06:02:17.994Z,7.13
2023-04-21T06:05:03.883Z,7.13
2023-04-21T06:07:49.414Z,7.18
2023-04-21T06:10:34.786Z,7.20
2023-04-21T06:13:19.965Z,7.28
2023-04-21T06:16:05.382Z,7.37
2023-04-21T06:18:51.136Z,7.46
2023-04-21T06:21:36.266Z,7.54
2023-04-21T06:24:25.676Z,7.62
2023-04-21T06:27:12.268Z,7.67
2023-04-21T06:29:57.689Z,7.71
2023-04-21T06:32:43.310Z,7.75
2023-04-21T06:35:28.522Z,7.80
2023-04-21T06:38:13.694Z,7.86
2023-04-21T06:40:59.089Z,7.93
2023-04-21T06:43:44.340Z,8.00
2023-04-21T06:46:29.733Z,8.06
2023-04-21T06:49:14.817Z,8.03
2023-04-21T06:52:00.421Z,7.97
2023-04-21T06:54:46.142Z,7.90
2023-04-21T06:57:31.552Z,7.90
2023-04-21T07:00:16.951Z,7.95
2023-04-21T07:03:02.087Z,8.11
2023-04-21T07:05:47.873Z,8.16
2023-04-21T07:08:33.250Z,8.12
2023-04-21T07:11:18.480Z,8.13
2023-04-21T07:14:04.117Z,8.18
2023-04-21T07:16:49.230Z,8.21
2023-04-21T07:19:34.506Z,8.29
2023-04-21T07:22:19.659Z,8.37
2023-04-21T07:25:06.584Z,8.43
2023-04-21T07:27:52.054Z,8.51
2023-04-21T07:30:37.787Z,8.57
2023-04-21T07:33:22.928Z,8.57
2023-04-21T07:36:08.328Z,8.51
2023-04-21T07:38:53.445Z,8.54
2023-04-21T07:41:38.653Z,8.62
2023-04-21T07:44:23.846Z,8.66
2023-04-21T07:47:09.270Z,8.76
2023-04-21T07:49:54.576Z,8.83
2023-04-21T07:52:39.946Z,8.90
2023-04-21T07:55:25.319Z,8.92
2023-04-21T07:58:11.141Z,9.09
2023-04-21T08:00:56.345Z,9.23
2023-04-21T08:03:42.130Z,9.28
2023-04-21T08:06:28.173Z,9.27
2023-04-21T08:09:14.022Z,9.18
2023-04-21T08:11:59.190Z,9.10
2023-04-21T08:14:44.486Z,9.14
2023-04-21T08:17:31.890Z,9.22
2023-04-21T08:20:17.219Z,9.32
2023-04-21T08:23:02.503Z,9.41
2023-04-21T08:25:47.697Z,9.40
2023-04-21T08:28:33.048Z,9.33
2023-04-21T08:31:19.282Z,9.38
2023-04-21T08:34:04.813Z,9.52
2023-04-21T08:36:50.201Z,9.64
2023-04-21T08:39:35.738Z,9.74
2023-04-21T08:42:21.311Z,9.75
2023-04-21T08:45:06.876Z,9.82
2023-04-21T08:47:52.814Z,9.80
2023-04-21T08:50:38.665Z,9.82
2023-04-21T08:53:23.981Z,9.79
2023-04-21T08:56:11.886Z,9.75
2023-04-21T08:58:57.092Z,9.85
2023-04-21T09:02:01.517Z,9.88
2023-04-21T09:04:48.247Z,9.91
2023-04-21T09:07:34.919Z,9.86
2023-04-21T09:10:24.640Z,9.94
2023-04-21T09:13:10.653Z,9.93
2023-04-21T09:15:56.180Z,10.03
2023-04-21T09:18:44.375Z,10.06
2023-04-21T09:21:32.137Z,9.89
2023-04-21T09:24:17.474Z,10.03
2023-04-21T09:27:03.944Z,10.03
2023-04-21T09:29:49.712Z,10.08
2023-04-21T09:32:39.240Z,10.19
2023-04-21T09:35:28.099Z,10.35
2023-04-21T09:38:13.521Z,10.42
2023-04-21T09:40:59.158Z,10.41
2023-04-21T09:43:44.623Z,10.46
2023-04-21T09:46:34.436Z,10.57
2023-04-21T09:49:22.766Z,10.70
2023-04-21T09:52:18.781Z,10.78
2023-04-21T09:55:07.176Z,10.72
2023-04-21T09:57:55.054Z,10.82
2023-04-21T10:00:41.214Z,10.95
2023-04-21T10:03:27.945Z,10.91
2023-04-21T10:06:13.936Z,10.72
2023-04-21T10:08:59.321Z,10.69
2023-04-21T10:11:44.955Z,10.66
2023-04-21T10:14:30.310Z,10.75
2023-04-21T10:17:17.832Z,10.72
2023-04-21T10:20:06.782Z,10.75
2023-04-21T10:22:57.138Z,10.85
2023-04-21T10:25:42.797Z,10.72
2023-04-21T10:28:41.600Z,10.52
2023-04-21T10:31:30.179Z,10.44
2023-04-21T10:34:16.241Z,10.49
2023-04-21T10:37:04.957Z,10.67
2023-04-21T10:39:54.811Z,10.84
2023-04-21T10:42:39.957Z,10.91
2023-04-21T10:45:25.973Z,11.06
2023-04-21T10:48:13.787Z,11.09
2023-04-21T10:50:59.187Z,11.25
2023-04-21T10:53:44.371Z,11.11
2023-04-21T10:56:29.771Z,11.14
2023-04-21T10:59:16.070Z,11.02
2023-04-21T11:02:02.211Z,11.04
2023-04-21T11:04:51.281Z,11.09
2023-04-21T11:07:37.209Z,11.12
2023-04-21T11:10:22.471Z,11.24
2023-04-21T11:13:07.998Z,11.31
2023-04-21T11:15:57.694Z,11.54
2023-04-21T11:18:44.209Z,11.54
2023-04-21T11:21:30.031Z,11.42
2023-04-21T11:24:15.482Z,11.27
2023-04-21T11:27:04.027Z,11.28
2023-04-21T11:29:50.569Z,11.32
2023-04-21T11:32:38.027Z,11.52
2023-04-21T11:35:23.718Z,11.72
2023-04-21T11:38:08.910Z,11.86
2023-04-21T11:40:55.115Z,12.03
2023-04-21T11:43:40.384Z,11.96
2023-04-21T11:46:26.608Z,11.93
2023-04-21T11:49:12.577Z,12.02
2023-04-21T11:51:57.875Z,12.15
2023-04-21T11:54:42.954Z,12.25
2023-04-21T11:57:29.194Z,12.22
2023-04-21T12:00:15.430Z,12.14
2023-04-21T12:03:01.103Z,12.24
2023-04-21T12:05:46.723Z,12.33
2023-04-21T12:08:32.575Z,12.49
2023-04-21T12:11:17.902Z,12.84
2023-04-21T12:14:03.201Z,13.03
2023-04-21T12:16:49.270Z,12.91
2023-04-21T12:19:35.962Z,13.13
2023-04-21T12:22:23.654Z,13.28
2023-04-21T12:25:11.895Z,13.45
2023-04-21T12:27:58.465Z,13.81
2023-04-21T12:30:44.237Z,13.64
2023-04-21T12:33:29.741Z,13.48
2023-04-21T12:36:16.354Z,13.34
2023-04-21T12:39:02.121Z,13.33
2023-04-21T12:41:47.745Z,13.25
2023-04-21T12:44:32.894Z,13.15
2023-04-21T12:47:18.048Z,13.36
2023-04-21T12:50:03.732Z,13.25
2023-04-21T12:52:51.550Z,13.31
2023-04-21T12:55:37.333Z,13.48
2023-04-21T12:58:22.917Z,13.24
2023-04-21T13:01:08.540Z,13.24
2023-04-21T13:03:54.045Z,13.25
2023-04-21T13:06:40.048Z,13.46
2023-04-21T13:09:25.634Z,13.51
2023-04-21T13:12:10.972Z,13.50
2023-04-21T13:14:56.640Z,13.24
2023-04-21T13:17:41.875Z,13.21
2023-04-21T13:20:27.333Z,13.37
2023-04-21T13:23:14.447Z,13.43
2023-04-21T13:26:00.042Z,13.23
2023-04-21T13:28:45.352Z,13.45
2023-04-21T13:31:30.785Z,13.72
2023-04-21T13:34:16.150Z,13.76
2023-04-21T13:37:01.649Z,14.00
2023-04-21T13:39:47.132Z,14.19
2023-04-21T13:42:33.807Z,14.44
2023-04-21T13:45:18.976Z,14.63
2023-04-21T13:48:04.450Z,14.76
2023-04-21T13:50:52.203Z,14.93
2023-04-21T13:53:37.387Z,15.23
2023-04-21T13:56:22.692Z,15.33
2023-04-21T13:59:07.928Z,15.29
2023-04-21T14:01:53.334Z,15.41
2023-04-21T14:04:39.099Z,15.38
2023-04-21T14:07:26.491Z,15.30
2023-04-21T14:10:14.900Z,15.16
2023-04-21T14:13:00.388Z,15.17
2023-04-21T14:15:45.584Z,15.32
2023-04-21T14:18:30.900Z,15.41
2023-04-21T14:21:16.253Z,15.39
2023-04-21T14:24:01.572Z,15.44
2023-04-21T14:26:46.801Z,15.64
2023-04-21T14:29:32.453Z,15.15
2023-04-21T14:32:20.708Z,14.93
2023-04-21T14:35:06.790Z,14.44
2023-04-21T14:37:54.726Z,14.07
2023-04-21T14:40:40.926Z,13.98
2023-04-21T14:43:26.203Z,13.81
2023-04-21T14:46:11.407Z,13.80
2023-04-21T14:48:57.650Z,13.72
2023-04-21T14:51:42.646Z,13.65
2023-04-21T14:54:27.998Z,13.53
2023-04-21T15:00:02.527Z,13.36
2023-04-21T15:02:48.127Z,13.27
2023-04-21T15:05:35.018Z,13.08
2023-04-21T15:08:20.495Z,12.96
2023-04-21T15:11:06.003Z,12.87
2023-04-21T15:13:51.192Z,12.82
2023-04-21T15:16:37.034Z,12.90
2023-04-21T15:19:25.261Z,12.92
2023-04-21T15:22:12.260Z,12.73
2023-04-21T15:24:57.780Z,12.44
2023-04-21T15:27:43.260Z,12.28
2023-04-21T15:30:28.769Z,12.20
2023-04-21T15:33:14.060Z,12.25
2023-04-21T15:35:59.207Z,12.33
2023-04-21T15:38:45.159Z,12.31
2023-04-21T15:41:31.706Z,12.33
2023-04-21T15:44:17.370Z,12.28
2023-04-21T15:47:03.053Z,12.24
2023-04-21T15:49:48.459Z,12.36
2023-04-21T15:52:35.882Z,12.53
2023-04-21T15:55:21.467Z,12.68
2023-04-21T15:58:06.932Z,12.83
2023-04-21T16:00:52.493Z,12.99
2023-04-21T16:03:38.104Z,13.02
2023-04-21T16:06:25.264Z,13.00
2023-04-21T16:09:11.053Z,13.02
2023-04-21T16:11:56.855Z,13.13
2023-04-21T16:14:54.553Z,13.12
2023-04-21T16:17:44.548Z,13.13
2023-04-21T16:20:31.183Z,12.91
2023-04-21T16:23:16.649Z,12.81
2023-04-21T16:26:02.392Z,12.80
2023-04-21T16:28:47.697Z,12.74
2023-04-21T16:31:33.025Z,12.84
2023-04-21T16:34:18.613Z,13.08
2023-04-21T16:37:03.791Z,13.30
2023-04-21T16:39:49.411Z,13.25
2023-04-21T16:42:34.868Z,13.13
2023-04-21T16:45:20.089Z,12.89
2023-04-21T16:48:05.829Z,12.85
2023-04-21T16:50:53.889Z,12.79
2023-04-21T16:53:40.381Z,12.82
2023-04-21T16:56:26.125Z,12.76
2023-04-21T16:59:11.351Z,12.78
2023-04-21T17:01:56.886Z,12.92
2023-04-21T17:04:42.694Z,12.71
2023-04-21T17:07:28.194Z,12.63
2023-04-21T17:10:13.547Z,12.56
2023-04-21T17:12:58.892Z,12.37
2023-04-21T17:15:44.121Z,12.33
2023-04-21T17:18:29.911Z,12.42
2023-04-21T17:21:15.390Z,12.66
2023-04-21T17:25:42.906Z,12.57
2023-04-21T17:28:28.355Z,12.71
2023-04-21T17:31:16.164Z,12.99
2023-04-21T17:34:01.887Z,13.00
2023-04-21T17:36:47.323Z,12.99
2023-04-21T17:39:32.887Z,12.88
2023-04-21T17:42:18.549Z,12.93
2023-04-21T17:45:05.896Z,12.87
2023-04-21T17:47:51.554Z,12.47
2023-04-21T17:50:36.944Z,12.41
2023-04-21T17:53:22.122Z,12.43
2023-04-21T17:56:08.601Z,12.32
2023-04-21T17:58:54.527Z,12.21
2023-04-21T18:01:40.133Z,12.27
2023-04-21T18:04:27.389Z,12.22
2023-04-21T18:07:13.472Z,11.91
2023-04-21T18:09:59.206Z,11.70
2023-04-21T18:12:44.947Z,11.63
2023-04-21T18:15:30.596Z,11.45
2023-04-21T18:18:16.082Z,11.28
2023-04-21T18:21:01.768Z,11.23
2023-04-21T18:23:47.545Z,11.18
2023-04-21T18:26:33.252Z,11.13
2023-04-21T18:29:19.639Z,11.19
2023-04-21T18:32:05.517Z,11.13
2023-04-21T18:34:51.132Z,11.12
2023-04-21T18:37:36.537Z,11.06
2023-04-21T18:40:22.126Z,11.02
2023-04-21T18:43:07.918Z,11.01
2023-04-21T18:45:53.107Z,10.90
2023-04-21T18:48:38.652Z,10.90
2023-04-21T18:51:24.507Z,10.88
2023-04-21T18:54:09.965Z,10.83
2023-04-21T18:56:55.720Z,10.81
2023-04-21T18:59:41.311Z,10.78
2023-04-21T19:02:27.081Z,10.75
2023-04-21T19:05:12.975Z,10.70
2023-04-21T19:07:58.451Z,10.59
2023-04-21T19:10:44.078Z,10.53
2023-04-21T19:13:29.580Z,10.45
2023-04-21T19:16:16.727Z,10.34
2023-04-21T19:19:02.455Z,10.28
2023-04-21T19:21:50.327Z,10.22
2023-04-21T19:24:36.252Z,10.17
2023-04-21T19:27:22.086Z,10.08
2023-04-21T19:30:09.397Z,10.01
2023-04-21T19:32:55.295Z,9.97
2023-04-21T19:35:41.239Z,9.98
2023-04-21T19:38:26.844Z,9.98
2023-04-21T19:41:13.259Z,9.99
2023-04-21T19:43:58.740Z,9.95
2023-04-21T19:46:44.356Z,9.91
2023-04-21T19:49:30.167Z,9.90
2023-04-21T19:52:15.802Z,9.85
2023-04-21T19:55:01.648Z,9.81
2023-04-21T19:57:46.951Z,9.78
2023-04-21T20:00:32.408Z,9.71
2023-04-21T20:03:17.798Z,9.70
2023-04-21T20:06:05.029Z,9.70
2023-04-21T20:08:50.655Z,9.67
2023-04-21T20:11:36.598Z,9.66
2023-04-21T20:14:22.071Z,9.65
2023-04-21T20:17:07.785Z,9.65
2023-04-21T20:19:54.313Z,9.62
2023-04-21T20:22:39.866Z,9.59
2023-04-21T20:25:25.790Z,9.56
2023-04-21T20:28:11.270Z,9.51
2023-04-21T20:30:57.052Z,9.49
2023-04-21T20:33:42.562Z,9.47
2023-04-21T20:36:28.803Z,9.47
2023-04-21T20:39:14.447Z,9.44
2023-04-21T20:42:12.070Z,9.39
2023-04-21T20:45:02.465Z,9.33
2023-04-21T20:47:47.632Z,9.28
2023-04-21T20:50:33.060Z,9.26
2023-04-21T20:53:18.876Z,9.22
2023-04-21T20:56:04.413Z,9.17
2023-04-21T20:58:49.963Z,9.17
2023-04-21T21:01:39.904Z,9.11
2023-04-21T21:04:25.563Z,9.07
2023-04-21T21:07:11.350Z,9.01
2023-04-21T21:09:56.824Z,8.95
2023-04-21T21:12:43.012Z,8.94
2023-04-21T21:15:30.535Z,8.94
2023-04-21T21:18:16.107Z,8.91
2023-04-21T21:21:02.302Z,8.87
2023-04-21T21:23:47.782Z,8.86
2023-04-21T21:26:33.272Z,8.80
2023-04-21T21:29:19.078Z,8.75
2023-04-21T21:32:04.503Z,8.74
2023-04-21T21:34:52.265Z,8.67
2023-04-21T21:37:38.313Z,8.61
2023-04-21T21:40:23.994Z,8.58
2023-04-21T21:43:10.981Z,8.58
2023-04-21T21:45:56.578Z,8.61
2023-04-21T21:48:42.769Z,8.63
2023-04-21T21:51:29.065Z,8.61
2023-04-21T21:54:14.299Z,8.62
2023-04-21T21:56:59.927Z,8.63
2023-04-21T21:59:45.684Z,8.64
2023-04-21T22:02:31.336Z,8.66
2023-04-21T22:05:17.678Z,8.68
2023-04-21T22:08:04.238Z,8.72
2023-04-21T22:10:49.592Z,8.75
2023-04-21T22:13:35.161Z,8.75
2023-04-21T22:16:20.563Z,8.79
2023-04-21T22:19:06.001Z,8.80
2023-04-21T22:21:52.407Z,8.80
2023-04-21T22:24:38.321Z,8.80
2023-04-21T22:27:23.702Z,8.78
2023-04-21T22:30:09.644Z,8.77
2023-04-21T22:32:55.074Z,8.78
2023-04-21T22:35:40.671Z,8.82
2023-04-21T22:38:26.066Z,8.83
2023-04-21T22:41:11.726Z,8.80
2023-04-21T22:43:57.010Z,8.79
2023-04-21T22:46:42.855Z,8.77
2023-04-21T22:49:28.642Z,8.77
2023-04-21T22:52:14.421Z,8.73
2023-04-21T22:54:59.780Z,8.74
2023-04-21T22:57:45.377Z,8.73
2023-04-21T23:00:31.104Z,8.72
2023-04-21T23:03:16.653Z,8.72
2023-04-21T23:06:02.224Z,8.72
2023-04-21T23:08:47.612Z,8.72
2023-04-21T23:11:32.823Z,8.73
2023-04-21T23:14:18.272Z,8.75
2023-04-21T23:17:03.669Z,8.79
2023-04-21T23:19:49.552Z,8.83
2023-04-21T23:22:35.367Z,8.85
2023-04-21T23:25:20.909Z,8.83
2023-04-21T23:28:06.373Z,8.81
2023-04-21T23:30:52.112Z,8.79
2023-04-21T23:33:37.537Z,8.77
2023-04-21T23:36:22.821Z,8.79
2023-04-21T23:39:08.262Z,8.79
2023-04-21T23:41:53.666Z,8.77
2023-04-21T23:44:40.471Z,8.80
2023-04-21T23:47:25.979Z,8.82
2023-04-21T23:50:11.770Z,8.81
2023-04-21T23:52:57.264Z,8.82
2023-04-21T23:55:43.245Z,8.84
2023-04-21T23:58:28.804Z,8.86
